Time;durP1;ratioP1;P1;durP2;ratioP2;P2;SDS_P1;SDS_P2;PMS_P1;PMS_P2;Temp;Humidity;BMP_temperature;BMP_pressure;BME280_temperature;BME280_humidity;BME280_pressure;Samples;Min_cycle;Max_cycle;Signal;HPM_P1;HPM_P2
2021/10/17 00:01:11;;;;;;;24.70;13.93;;;4.60;99.90;;;;;;8359413;28;20040;-67
2021/10/17 00:05:13;;;;;;;27.10;14.55;;;4.30;99.90;;;;;;8357868;28;20200;-67
2021/10/17 00:09:14;;;;;;;23.77;13.73;;;4.20;99.90;;;;;;8359075;28;20519;-67
2021/10/17 00:13:14;;;;;;;22.33;13.85;;;4.20;99.90;;;;;;8357805;28;20017;-67
2021/10/17 00:17:15;;;;;;;23.95;13.15;;;4.20;99.90;;;;;;8359080;28;20446;-67
2021/10/17 00:21:16;;;;;;;22.90;12.98;;;4.20;99.90;;;;;;8359100;28;20039;-67
2021/10/17 00:25:16;;;;;;;23.65;12.68;;;4.10;99.90;;;;;;8358532;28;20033;-67
2021/10/17 00:29:17;;;;;;;23.80;13.18;;;4.10;99.90;;;;;;8357658;28;20395;-67
2021/10/17 00:33:18;;;;;;;28.15;11.35;;;4.00;99.90;;;;;;8358785;28;20025;-67
2021/10/17 00:37:18;;;;;;;17.17;10.15;;;3.80;99.90;;;;;;8357708;28;20029;-67
2021/10/17 00:41:19;;;;;;;22.88;10.65;;;3.70;99.90;;;;;;8357193;28;20033;-67
2021/10/17 00:45:31;;;;;;;308.33;16.38;;;3.80;99.90;;;;;;8358427;28;20477;-67
2021/10/17 00:49:32;;;;;;;52.80;12.55;;;3.70;99.90;;;;;;8356267;28;20060;-67
2021/10/17 00:53:33;;;;;;;69.88;11.48;;;3.60;99.90;;;;;;8358142;28;20029;-67
2021/10/17 00:57:34;;;;;;;96.30;11.13;;;3.70;99.90;;;;;;8357947;28;20100;-67
2021/10/17 01:01:36;;;;;;;51.35;9.88;;;3.80;99.90;;;;;;8358348;28;20036;-67
2021/10/17 01:05:36;;;;;;;104.45;10.52;;;3.60;99.90;;;;;;8358058;28;20031;-66
2021/10/17 01:09:38;;;;;;;126.90;11.18;;;3.70;99.90;;;;;;8358105;28;20025;-67
2021/10/17 01:13:39;;;;;;;70.55;9.50;;;3.60;99.90;;;;;;8358053;28;20055;-66
2021/10/17 01:17:39;;;;;;;78.85;11.38;;;3.70;99.90;;;;;;8357982;28;20090;-67
2021/10/17 01:21:41;;;;;;;51.30;12.85;;;3.40;99.90;;;;;;8358075;28;20484;-66
2021/10/17 01:25:42;;;;;;;57.72;12.30;;;3.50;99.90;;;;;;8357619;28;20021;-67
2021/10/17 01:29:43;;;;;;;57.05;13.55;;;3.70;99.90;;;;;;8357713;28;20080;-66
2021/10/17 01:33:43;;;;;;;135.93;16.27;;;3.80;99.90;;;;;;8360738;28;20025;-66
2021/10/17 01:37:44;;;;;;;72.40;15.82;;;3.80;99.90;;;;;;8363288;28;20036;-67
2021/10/17 01:41:45;;;;;;;77.65;17.10;;;3.60;99.90;;;;;;8362166;28;20091;-67
2021/10/17 01:45:45;;;;;;;124.05;18.60;;;3.60;99.90;;;;;;8362655;28;20094;-67
2021/10/17 01:49:46;;;;;;;83.40;17.48;;;3.70;99.90;;;;;;8361661;28;20037;-67
2021/10/17 01:53:46;;;;;;;52.67;16.10;;;4.00;99.90;;;;;;8363721;28;20028;-67
2021/10/17 01:57:47;;;;;;;143.77;17.52;;;4.00;99.90;;;;;;8363180;28;20036;-67
2021/10/17 02:01:47;;;;;;;109.00;16.25;;;3.90;99.90;;;;;;8362047;28;20510;-67
2021/10/17 02:05:48;;;;;;;114.40;17.27;;;4.20;99.90;;;;;;8363161;28;20029;-67
2021/10/17 02:09:48;;;;;;;235.60;18.92;;;4.40;99.90;;;;;;8362916;28;20477;-67
2021/10/17 02:13:49;;;;;;;89.75;15.45;;;4.40;99.90;;;;;;8361613;28;20027;-67
2021/10/17 02:17:49;;;;;;;63.35;15.38;;;4.30;99.90;;;;;;8362382;28;20031;-67
2021/10/17 02:21:50;;;;;;;173.73;16.05;;;4.30;99.90;;;;;;8362925;28;20122;-67
2021/10/17 02:25:50;;;;;;;109.55;16.52;;;4.40;99.90;;;;;;8361105;28;20095;-66
2021/10/17 02:29:51;;;;;;;181.13;16.35;;;4.60;99.90;;;;;;8362025;28;20083;-66
2021/10/17 02:33:51;;;;;;;68.80;15.00;;;4.70;99.90;;;;;;8362220;28;20055;-66
2021/10/17 02:37:52;;;;;;;155.98;15.82;;;4.70;99.90;;;;;;8361612;28;20554;-66
2021/10/17 02:41:53;;;;;;;44.00;14.52;;;4.60;99.90;;;;;;8361575;28;20025;-67
2021/10/17 02:45:53;;;;;;;62.83;16.55;;;4.30;99.90;;;;;;8361882;28;20396;-66
2021/10/17 02:49:53;;;;;;;32.70;15.35;;;4.10;99.90;;;;;;8360269;28;20029;-67
2021/10/17 02:53:54;;;;;;;69.22;16.45;;;4.10;99.90;;;;;;8360610;28;20032;-66
2021/10/17 02:57:54;;;;;;;39.45;15.52;;;4.10;99.90;;;;;;8358892;28;20021;-67
2021/10/17 03:01:55;;;;;;;49.95;16.40;;;4.10;99.90;;;;;;8360495;28;20090;-67
2021/10/17 03:05:56;;;;;;;73.47;17.33;;;4.20;99.90;;;;;;8360732;28;20040;-66
2021/10/17 03:09:56;;;;;;;73.05;16.95;;;4.30;99.90;;;;;;8358993;28;20029;-67
2021/10/17 03:13:57;;;;;;;65.45;15.85;;;4.20;99.90;;;;;;8359619;28;20453;-67
2021/10/17 03:17:58;;;;;;;53.90;16.30;;;4.10;99.90;;;;;;8359011;28;20064;-66
2021/10/17 03:21:58;;;;;;;77.10;16.83;;;4.10;99.90;;;;;;8359290;28;20396;-66
2021/10/17 03:25:59;;;;;;;39.35;14.60;;;3.90;99.90;;;;;;8358295;28;20036;-66
2021/10/17 03:30:00;;;;;;;43.67;15.30;;;3.90;99.90;;;;;;8359071;28;20025;-66
2021/10/17 03:34:01;;;;;;;50.08;15.32;;;4.00;99.90;;;;;;8360398;28;20116;-67
2021/10/17 03:38:01;;;;;;;61.10;16.67;;;4.00;99.90;;;;;;8360017;28;20044;-66
2021/10/17 03:42:02;;;;;;;64.03;15.77;;;4.10;99.90;;;;;;8359656;28;20408;-67
2021/10/17 03:46:02;;;;;;;58.50;15.13;;;4.30;99.90;;;;;;8359588;28;20039;-67
2021/10/17 03:50:03;;;;;;;81.97;14.82;;;4.40;99.90;;;;;;8359072;28;20407;-66
2021/10/17 03:54:04;;;;;;;60.00;13.77;;;4.40;99.90;;;;;;8359391;28;20504;-66
2021/10/17 03:58:05;;;;;;;88.45;14.65;;;4.20;99.90;;;;;;8357577;28;20171;-66
2021/10/17 04:02:05;;;;;;;69.97;12.35;;;4.20;99.90;;;;;;8359393;28;20024;-66
2021/10/17 04:06:07;;;;;;;118.60;14.23;;;3.90;99.90;;;;;;8359144;28;20031;-66
2021/10/17 04:10:08;;;;;;;84.30;15.05;;;4.10;99.90;;;;;;8359483;28;20021;-66
2021/10/17 04:14:09;;;;;;;49.35;12.98;;;4.20;99.90;;;;;;8359461;28;20025;-67
2021/10/17 04:18:09;;;;;;;63.55;12.38;;;3.90;99.90;;;;;;8358628;28;20109;-67
2021/10/17 04:22:10;;;;;;;118.28;13.70;;;3.70;99.90;;;;;;8357734;28;20021;-66
2021/10/17 04:26:10;;;;;;;78.00;13.40;;;4.00;99.90;;;;;;8357970;28;20024;-67
2021/10/17 04:30:11;;;;;;;112.53;14.57;;;3.90;99.90;;;;;;8359192;28;20094;-67
2021/10/17 04:34:12;;;;;;;60.70;12.48;;;4.20;99.90;;;;;;8356916;28;20021;-66
2021/10/17 04:38:14;;;;;;;58.58;12.10;;;4.10;99.90;;;;;;8357683;28;20033;-67
2021/10/17 04:42:14;;;;;;;65.28;11.18;;;3.80;99.90;;;;;;8358434;28;20079;-66
2021/10/17 04:46:15;;;;;;;90.55;12.38;;;3.80;99.90;;;;;;8357097;28;20029;-66
2021/10/17 04:50:16;;;;;;;101.45;12.32;;;3.90;99.90;;;;;;8357108;28;20050;-66
2021/10/17 04:54:16;;;;;;;66.65;10.88;;;3.80;99.90;;;;;;8358684;28;20052;-67
2021/10/17 04:58:17;;;;;;;104.40;12.15;;;3.90;99.90;;;;;;8358191;28;20025;-66
2021/10/17 05:02:17;;;;;;;52.42;12.05;;;3.60;99.90;;;;;;8358521;28;20123;-66
2021/10/17 05:06:18;;;;;;;128.60;12.98;;;3.60;99.90;;;;;;8358156;28;20033;-66
2021/10/17 05:10:18;;;;;;;97.90;12.18;;;3.90;99.90;;;;;;8364202;28;20021;-66
2021/10/17 05:14:19;;;;;;;37.17;10.48;;;3.80;99.90;;;;;;8364493;28;20032;-66
2021/10/17 05:18:20;;;;;;;102.18;12.88;;;3.70;99.90;;;;;;8362794;28;20098;-66
2021/10/17 05:22:20;;;;;;;57.78;11.55;;;3.80;99.90;;;;;;8362972;28;20029;-67
2021/10/17 05:26:21;;;;;;;96.78;13.60;;;3.70;99.90;;;;;;8364029;28;20040;-66
2021/10/17 05:30:22;;;;;;;135.77;14.70;;;3.60;99.90;;;;;;8357746;28;20485;-66
2021/10/17 05:34:23;;;;;;;83.32;15.95;;;3.60;99.90;;;;;;8350493;28;20032;-67
2021/10/17 05:38:23;;;;;;;168.25;16.20;;;6.10;99.90;;;;;;8354633;28;20489;-67
2021/10/17 05:42:24;;;;;;;;;;;6.70;99.90;;;;;;8356922;28;20025;-66
2021/10/17 05:46:24;;;;;;;;;;;7.40;99.90;;;;;;8355710;28;19913;-66
2021/10/17 05:50:25;;;;;;;;;;;6.90;99.90;;;;;;8361335;28;19919;-66
2021/10/17 05:54:25;;;;;;;;;;;7.50;99.90;;;;;;8364416;28;19966;-66
2021/10/17 05:58:25;;;;;;;;;;;7.80;99.90;;;;;;8383814;28;20335;-66
2021/10/17 06:02:26;;;;;;;;;;;7.10;99.90;;;;;;8360822;28;19955;-66
2021/10/17 06:06:27;;;;;;;;;;;6.10;99.90;;;;;;8362219;28;19999;-66
2021/10/17 06:10:27;;;;;;;;;;;5.40;99.90;;;;;;8360407;28;20269;-66
2021/10/17 06:14:28;;;;;;;;;;;5.10;99.90;;;;;;8344910;28;19968;-67
2021/10/17 06:18:28;;;;;;;;;;;4.80;99.90;;;;;;8336113;28;20357;-66
2021/10/17 06:22:29;;;;;;;;;;;4.80;99.90;;;;;;8345196;28;19956;-66
2021/10/17 06:26:29;;;;;;;;;;;4.80;99.90;;;;;;8343394;28;20308;-67
2021/10/17 06:30:30;;;;;;;;;;;4.70;99.90;;;;;;8353070;28;19905;-66
2021/10/17 06:34:30;;;;;;;;;;;4.80;99.90;;;;;;8357584;28;19909;-66
2021/10/17 06:38:31;;;;;;;;;;;4.70;99.90;;;;;;8357933;28;19908;-66
2021/10/17 06:42:31;;;;;;;;;;;4.80;99.90;;;;;;8357719;28;19919;-66
2021/10/17 06:46:32;;;;;;;;;;;4.70;99.90;;;;;;8335457;28;20642;-66
2021/10/17 06:50:32;;;;;;;;;;;5.00;99.90;;;;;;8324067;28;19924;-66
2021/10/17 06:54:32;;;;;;;;;;;5.10;99.90;;;;;;8323948;28;19948;-66
2021/10/17 06:58:33;;;;;;;;;;;5.20;99.90;;;;;;8342243;28;19909;-66
2021/10/17 07:02:33;;;;;;;;;;;5.40;99.90;;;;;;8355069;28;19948;-66
2021/10/17 07:06:34;;;;;;;;;;;5.40;99.90;;;;;;8354903;28;19913;-66
2021/10/17 07:10:34;;;;;;;;;;;5.60;99.90;;;;;;8357017;28;19915;-66
2021/10/17 07:14:35;;;;;;;;;;;5.70;99.90;;;;;;8355309;28;19915;-66
2021/10/17 07:18:35;;;;;;;;;;;5.70;99.90;;;;;;8356656;28;19962;-66
2021/10/17 07:22:36;;;;;;;;;;;5.70;99.90;;;;;;8339275;28;19940;-66
2021/10/17 07:26:36;;;;;;;;;;;5.70;99.90;;;;;;8325059;28;20396;-66
2021/10/17 07:30:36;;;;;;;;;;;5.70;99.90;;;;;;8355501;28;20257;-66
2021/10/17 07:34:37;;;;;;;;;;;5.70;99.90;;;;;;8351789;28;19913;-66
2021/10/17 07:38:37;;;;;;;;;;;5.70;99.90;;;;;;8355389;28;20389;-66
2021/10/17 07:42:38;;;;;;;;;;;5.80;99.90;;;;;;8355810;28;19912;-66
2021/10/17 07:46:38;;;;;;;;;;;5.80;99.90;;;;;;8345583;28;19924;-66
2021/10/17 07:50:39;;;;;;;;;;;6.00;99.90;;;;;;8342049;28;20395;-66
2021/10/17 07:54:41;;;;;;;;;;;6.10;99.90;;;;;;8348933;28;19912;-66
2021/10/17 07:58:41;;;;;;;;;;;6.10;99.90;;;;;;8355749;28;19908;-66
2021/10/17 08:02:42;;;;;;;;;;;6.10;99.90;;;;;;8355674;28;19908;-66
2021/10/17 08:06:42;;;;;;;;;;;6.50;99.90;;;;;;8354374;28;19913;-66
2021/10/17 08:10:42;;;;;;;;;;;6.80;99.90;;;;;;8353315;28;19909;-66
2021/10/17 08:14:43;;;;;;;;;;;6.90;99.90;;;;;;8354317;28;19959;-66
2021/10/17 08:18:43;;;;;;;;;;;6.90;99.90;;;;;;8354359;28;19912;-66
2021/10/17 08:22:44;;;;;;;;;;;6.90;99.90;;;;;;8336705;28;19905;-66
2021/10/17 08:26:44;;;;;;;;;;;6.90;99.90;;;;;;8383794;22;19920;-66
2021/10/17 08:30:46;;;;;;;;;;;7.00;99.90;;;;;;8389882;28;19916;-66
2021/10/17 08:34:47;;;;;;;;;;;7.30;99.90;;;;;;8385333;28;19909;-67
2021/10/17 08:38:47;;;;;;;;;;;7.50;99.90;;;;;;8391618;28;19961;-67
2021/10/17 08:42:48;;;;;;;;;;;7.60;99.90;;;;;;8387481;28;20319;-66
2021/10/17 08:46:49;;;;;;;;;;;7.70;99.90;;;;;;8386917;28;19966;-67
2021/10/17 08:50:51;;;;;;;;;;;7.50;99.90;;;;;;8398402;28;19904;-67
2021/10/17 09:13:30;;;;;;;;;;;7.70;99.90;;;;;;8387048;28;19951;-67
2021/10/17 09:17:30;;;;;;;;;;;7.50;99.90;;;;;;8396540;28;20235;-67
2021/10/17 09:21:30;;;;;;;;;;;7.70;99.90;;;;;;8398395;28;19904;-67
2021/10/17 09:25:35;;;;;;;;;;;7.50;99.90;;;;;;8398386;28;20288;-67
2021/10/17 09:29:36;;;;;;;;;;;7.80;99.90;;;;;;8397033;28;20377;-67
2021/10/17 09:33:46;;;;;;;;;;;7.40;99.90;;;;;;8397456;28;19935;-67
2021/10/17 09:37:46;;;;;;;;;;;7.70;99.90;;;;;;8396124;28;20361;-67
2021/10/17 09:41:51;;;;;;;;;;;7.80;99.90;;;;;;8397492;28;19936;-67
2021/10/17 09:46:06;;;;;;;;;;;8.30;99.90;;;;;;8397613;28;19908;-67
2021/10/17 09:50:13;;;;;;;;;;;8.60;99.90;;;;;;8397039;28;19991;-67
2021/10/17 09:54:19;;;;;;;;;;;8.90;99.90;;;;;;8396304;28;19959;-67
2021/10/17 09:58:20;;;;;;;;;;;8.70;99.90;;;;;;8397230;28;20535;-67
2021/10/17 10:02:22;;;;;;;;;;;8.70;99.90;;;;;;8395274;28;19912;-67
2021/10/17 10:06:23;;;;;;;;;;;8.80;99.90;;;;;;8394809;28;19912;-67
2021/10/17 10:10:24;;;;;;;;;;;8.60;99.90;;;;;;8395282;28;19923;-67
2021/10/17 10:14:25;;;;;;;;;;;9.00;99.90;;;;;;8395777;28;19908;-67
2021/10/17 10:18:27;;;;;;;;;;;9.60;99.90;;;;;;8395200;28;20003;-67
2021/10/17 10:22:31;;;;;;;;;;;10.00;99.90;;;;;;8394835;28;20439;-67
2021/10/17 10:26:32;;;;;;;;;;;10.10;99.90;;;;;;8393914;28;19920;-67
2021/10/17 10:30:33;;;;;;;;;;;10.30;99.90;;;;;;8394282;28;19909;-67
2021/10/17 10:34:36;;;;;;;;;;;10.60;99.90;;;;;;8393487;28;19916;-67
2021/10/17 10:38:52;;;;;;;;;;;10.50;99.90;;;;;;8391285;28;19908;-67
2021/10/17 10:42:53;;;;;;;;;;;10.40;99.90;;;;;;8393132;28;19909;-67
2021/10/17 10:46:55;;;;;;;;;;;10.10;99.90;;;;;;8392669;28;20015;-67
2021/10/17 10:50:57;;;;;;;;;;;10.30;99.90;;;;;;8394320;28;19999;-67
2021/10/17 10:54:59;;;;;;;;;;;10.40;99.90;;;;;;8389318;28;20373;-67
2021/10/17 10:58:59;;;;;;;;;;;10.50;99.90;;;;;;8389565;28;20010;-67
2021/10/17 11:03:13;;;;;;;;;;;10.60;99.90;;;;;;8388372;28;19969;-67
2021/10/17 11:07:29;;;;;;;;;;;10.80;99.90;;;;;;8385458;28;19912;-67
2021/10/17 11:11:36;;;;;;;;;;;10.80;99.90;;;;;;8386353;28;19936;-67
2021/10/17 11:15:38;;;;;;;;;;;10.80;99.90;;;;;;8388176;28;20284;-67
2021/10/17 11:19:39;;;;;;;;;;;10.90;99.90;;;;;;8387282;28;20298;-67
2021/10/17 11:23:40;;;;;;;;;;;10.70;99.90;;;;;;8388423;28;19916;-67
2021/10/17 11:27:41;;;;;;;;;;;10.90;99.90;;;;;;8385928;28;19981;-67
2021/10/17 11:31:41;;;;;;;;;;;11.40;99.90;;;;;;8386811;28;19920;-67
2021/10/17 11:35:42;;;;;;;;;;;11.60;99.90;;;;;;8384993;28;19942;-67
2021/10/17 11:39:57;;;;;;;;;;;11.70;99.90;;;;;;8389211;28;19908;-67
2021/10/17 11:43:58;;;;;;;;;;;11.70;99.90;;;;;;8387897;28;19995;-67
2021/10/17 11:48:00;;;;;;;;;;;12.20;99.90;;;;;;8386531;28;20388;-67
2021/10/17 11:52:04;;;;;;;;;;;12.60;99.90;;;;;;8388338;28;19951;-67
2021/10/17 11:56:09;;;;;;;;;;;14.50;99.90;;;;;;8388124;28;19919;-67
2021/10/17 12:00:09;;;;;;;;;;;18.90;99.90;;;;;;8387496;28;19984;-67
2021/10/17 12:04:10;;;;;;;;;;;17.60;99.90;;;;;;8387520;28;19939;-67
2021/10/17 12:08:21;;;;;;;;;;;15.60;99.90;;;;;;8387747;28;19991;-67
2021/10/17 12:12:22;;;;;;;;;;;14.40;99.90;;;;;;8386385;28;19909;-67
2021/10/17 12:16:24;;;;;;;;;;;15.50;99.90;;;;;;8386730;28;19911;-67
2021/10/17 12:20:26;;;;;;;;;;;17.90;99.90;;;;;;8385240;28;20376;-67
2021/10/17 12:24:27;;;;;;;;;;;17.80;99.90;;;;;;8387333;28;19918;-67
2021/10/17 12:28:27;;;;;;;;;;;16.30;99.90;;;;;;8387257;28;19912;-67
2021/10/17 12:32:39;;;;;;;;;;;16.20;99.90;;;;;;8386972;28;19965;-67
2021/10/17 12:36:41;;;;;;;;;;;16.80;99.90;;;;;;8384240;28;20458;-67
2021/10/17 12:40:56;;;;;;;;;;;18.80;99.90;;;;;;8386930;28;19943;-67
2021/10/17 12:44:58;;;;;;;;;;;18.50;99.90;;;;;;8384665;28;19912;-67
2021/10/17 12:49:09;;;;;;;;;;;21.20;99.90;;;;;;8386182;28;19924;-68
2021/10/17 12:53:11;;;;;;;;;;;21.70;99.90;;;;;;8385763;28;20027;-67
2021/10/17 12:57:16;;;;;;;;;;;23.10;95.60;;;;;;8386633;28;20007;-68
2021/10/17 13:01:18;;;;;;;;;;;21.80;98.70;;;;;;8383887;28;19908;-67
2021/10/17 13:05:19;;;;;;;;;;;24.50;92.80;;;;;;8387083;28;19944;-68
2021/10/17 13:09:20;;;;;;;;;;;26.40;82.70;;;;;;8386598;28;19912;-68
2021/10/17 13:13:24;;;;;;;;;;;26.80;78.20;;;;;;8386463;28;20361;-68
2021/10/17 13:17:25;;;;;;;;;;;28.70;66.30;;;;;;8386157;28;19928;-68
2021/10/17 13:21:25;;;;;;;;;;;28.40;64.10;;;;;;8386292;28;19908;-68
2021/10/17 13:25:27;;;;;;;;;;;27.60;62.60;;;;;;8387335;28;20276;-68
2021/10/17 13:29:27;;;;;;;;;;;27.50;63.40;;;;;;8389977;28;20415;-68
2021/10/17 13:33:28;;;;;;;;;;;27.20;63.40;;;;;;8392404;28;19961;-68
2021/10/17 13:37:29;;;;;;;;;;;25.30;66.70;;;;;;8385959;28;19919;-67
2021/10/17 13:41:31;;;;;;;;;;;24.40;70.60;;;;;;8378952;28;20026;-68
2021/10/17 13:45:33;;;;;;;;;;;23.90;73.20;;;;;;8384306;28;20007;-67
2021/10/17 13:49:33;;;;;;;;;;;23.30;76.50;;;;;;8392308;28;19915;-67
2021/10/17 13:53:33;;;;;;;;;;;22.10;79.20;;;;;;8393871;28;19904;-67
2021/10/17 13:57:34;;;;;;;;;;;18.10;92.60;;;;;;8394133;28;19957;-67
2021/10/17 14:01:34;;;;;;;;;;;15.50;99.90;;;;;;8394210;28;19904;-67
2021/10/17 14:05:35;;;;;;;;;;;14.80;99.90;;;;;;8393899;28;19908;-68
2021/10/17 14:09:35;;;;;;;;;;;14.30;99.90;;;;;;8392529;28;20013;-67
2021/10/17 14:13:36;;;;;;;;;;;14.10;99.90;;;;;;8396439;28;19922;-67
2021/10/17 14:17:36;;;;;;;;;;;13.80;99.90;;;;;;8394574;28;19910;-67
2021/10/17 14:21:37;;;;;;;;;;;13.70;99.90;;;;;;8393282;28;19974;-67
2021/10/17 14:25:38;;;;;;;;;;;13.40;99.90;;;;;;8392954;28;20435;-68
2021/10/17 14:29:38;;;;;;;;;;;13.60;99.90;;;;;;8394042;28;19912;-67
2021/10/17 14:33:39;;;;;;;;;;;13.10;99.90;;;;;;8395392;28;19912;-67
2021/10/17 14:37:39;;;;;;;;;;;12.40;99.90;;;;;;8392277;28;20022;-67
2021/10/17 14:41:40;;;;;;;;;;;12.00;99.90;;;;;;8392435;28;19904;-67
2021/10/17 14:45:40;;;;;;;;;;;11.90;99.90;;;;;;8392829;28;19955;-67
2021/10/17 14:49:42;;;;;;;;;;;11.60;99.90;;;;;;8393880;28;19915;-67
2021/10/17 14:53:43;;;;;;;;;;;11.20;99.90;;;;;;8423819;22;19967;-65
2021/10/17 14:57:43;;;;;;;;;;;10.90;99.90;;;;;;8408925;28;19908;-65
2021/10/17 15:01:44;;;;;;;;;;;11.00;99.90;;;;;;8425894;28;19904;-65
2021/10/17 15:05:44;;;;;;;;;;;11.10;99.90;;;;;;8450545;28;20366;-65
2021/10/17 15:09:45;;;;;;;;;;;11.10;99.90;;;;;;8459905;28;19904;-65
2021/10/17 15:13:45;;;;;;;;;;;11.00;99.90;;;;;;8461317;28;19912;-65
2021/10/17 15:17:48;;;;;;;;;;;11.00;99.90;;;;;;8434229;28;20295;-65
2021/10/17 15:21:48;;;;;;;;;;;11.00;99.90;;;;;;8409112;28;19998;-64
2021/10/17 15:25:49;;;;;;;;;;;10.70;99.90;;;;;;8426738;28;20532;-64
2021/10/17 15:29:49;;;;;;;;;;;10.40;99.90;;;;;;8454125;28;19903;-64
2021/10/17 15:33:50;;;;;;;;;;;10.40;99.90;;;;;;8459988;28;19991;-63
2021/10/17 15:37:50;;;;;;;;;;;10.40;99.90;;;;;;8444642;28;19908;-64
2021/10/17 15:41:51;;;;;;;;;;;10.20;99.90;;;;;;8435517;28;20304;-63
2021/10/17 15:45:51;;;;;;;;;;;10.20;99.90;;;;;;8441708;28;19931;-64
2021/10/17 15:49:52;;;;;;;;;;;10.30;99.90;;;;;;8432594;28;20371;-64
2021/10/17 15:53:52;;;;;;;;;;;10.30;99.90;;;;;;8442708;28;19918;-64
2021/10/17 15:57:53;;;;;;;;;;;10.30;99.90;;;;;;8450908;28;20366;-64
2021/10/17 16:01:54;;;;;;;;;;;10.10;99.90;;;;;;8454568;28;19916;-64
2021/10/17 16:05:54;;;;;;;;;;;10.10;99.90;;;;;;8436328;28;19919;-64
2021/10/17 16:09:55;;;;;;;;;;;9.80;99.90;;;;;;8457485;28;20377;-64
2021/10/17 16:13:55;;;;;;;;;;;9.70;99.90;;;;;;8457621;28;19903;-65
2021/10/17 16:17:56;;;;;;;;;;;9.70;99.90;;;;;;8455812;28;19908;-64
2021/10/17 16:21:56;;;;;;;;;;;9.70;99.90;;;;;;8455328;28;19994;-64
2021/10/17 16:25:57;;;;;;;;;;;9.70;99.90;;;;;;8456890;28;19908;-64
2021/10/17 16:29:57;;;;;;;;;;;9.40;99.90;;;;;;8458095;28;19904;-64
2021/10/17 16:33:58;;;;;;;;;;;9.30;99.90;;;;;;8438756;28;19969;-64
2021/10/17 16:37:58;;;;;;;;;;;9.10;99.90;;;;;;8423671;28;19904;-64
2021/10/17 16:41:59;;;;;;;;;;;8.90;99.90;;;;;;8436116;28;20561;-64
2021/10/17 16:46:00;;;;;;;;;;;8.80;99.90;;;;;;8437876;28;19925;-64
2021/10/17 16:50:00;;;;;;;;;;;8.80;99.90;;;;;;8438381;28;19911;-66
2021/10/17 16:54:01;;;;;;;;;;;8.80;99.90;;;;;;8458445;28;20319;-66
2021/10/17 16:58:01;;;;;;;;;;;8.50;99.90;;;;;;8433921;28;19907;-65
2021/10/17 17:02:02;;;;;;;;;;;8.40;99.90;;;;;;8438289;28;19973;-65
2021/10/17 17:06:03;;;;;;;;;;;8.30;99.90;;;;;;8441716;28;19912;-66
2021/10/17 17:10:03;;;;;;;;;;;8.30;99.90;;;;;;8442295;28;19912;-66
2021/10/17 17:14:04;;;;;;;;;;;8.20;99.90;;;;;;8429240;28;19919;-66
2021/10/17 17:18:05;;;;;;;;;;;7.70;99.90;;;;;;8407446;28;19949;-66
2021/10/17 17:22:05;;;;;;;;;;;7.70;99.90;;;;;;8447628;28;19911;-66
2021/10/17 17:26:06;;;;;;;;;;;7.50;99.90;;;;;;8454705;28;19912;-67
2021/10/17 17:30:07;;;;;;;;;;;7.40;99.90;;;;;;8427005;28;19932;-66
2021/10/17 17:34:08;;;;;;;;;;;7.30;99.90;;;;;;8442665;28;19941;-66
2021/10/17 17:38:08;;;;;;;;;;;7.40;99.90;;;;;;8439646;28;20372;-66
2021/10/17 17:42:09;;;;;;;;;;;7.40;99.90;;;;;;8426141;28;20045;-66
2021/10/17 17:46:09;;;;;;;;;;;7.30;99.90;;;;;;8423799;28;19916;-66
2021/10/17 17:50:11;;;;;;;;;;;7.20;99.90;;;;;;8424961;28;20571;-66
2021/10/17 17:54:12;;;;;;;;;;;7.00;99.90;;;;;;8408500;28;19912;-67
2021/10/17 17:58:13;;;;;;;;;;;6.90;99.90;;;;;;8441780;28;19958;-66
2021/10/17 18:02:13;;;;;;;;;;;7.00;99.90;;;;;;8434543;28;19908;-66
2021/10/17 18:06:13;;;;;;;;;;;7.10;99.90;;;;;;8447914;28;19928;-66
2021/10/17 18:10:16;;;;;;;;;;;7.20;99.90;;;;;;8430937;28;19950;-66
2021/10/17 18:14:18;;;;;;;;;;;7.40;99.90;;;;;;8444656;28;20005;-66
2021/10/17 18:18:19;;;;;;;;;;;7.00;99.90;;;;;;8452309;28;19939;-66
2021/10/17 18:22:19;;;;;;;;;;;6.70;99.90;;;;;;8439816;28;19912;-66
2021/10/17 18:26:20;;;;;;;;;;;7.10;99.90;;;;;;8457435;28;19937;-66
2021/10/17 18:30:20;;;;;;;;;;;7.10;99.90;;;;;;8455767;28;20439;-66
2021/10/17 18:34:21;;;;;;;;;;;7.00;99.90;;;;;;8457679;28;20378;-66
2021/10/17 18:38:22;;;;;;;;;;;6.70;99.90;;;;;;8456606;28;20041;-66
2021/10/17 18:42:22;;;;;;;;;;;6.50;99.90;;;;;;8450894;28;19904;-66
2021/10/17 18:46:23;;;;;;;;;;;6.50;99.90;;;;;;8443770;28;20022;-66
2021/10/17 18:50:23;;;;;;;;;;;6.50;99.90;;;;;;8437655;28;19916;-67
2021/10/17 18:54:24;;;;;;;;;;;6.60;99.90;;;;;;8421378;28;20014;-66
2021/10/17 18:58:24;;;;;;;;;;;6.60;99.90;;;;;;8441876;28;19919;-66
2021/10/17 19:02:24;;;;;;;;;;;6.70;99.90;;;;;;8454447;28;19904;-66
2021/10/17 19:06:25;;;;;;;;;;;6.70;99.90;;;;;;8456846;28;19947;-66
2021/10/17 19:10:25;;;;;;;;;;;6.70;99.90;;;;;;8443487;28;20336;-66
2021/10/17 19:14:26;;;;;;;;;;;6.70;99.90;;;;;;8414135;28;20363;-66
2021/10/17 19:18:27;;;;;;;;;;;6.70;99.90;;;;;;8422387;28;20423;-66
2021/10/17 19:22:27;;;;;;;;;;;6.90;99.90;;;;;;8432233;28;19973;-66
2021/10/17 19:26:28;;;;;;;;;;;6.90;99.90;;;;;;8442340;28;19911;-66
2021/10/17 19:30:30;;;;;;;;;;;7.00;99.90;;;;;;8423176;28;19908;-66
2021/10/17 19:34:30;;;;;;;;;;;6.90;99.90;;;;;;8409880;28;19946;-66
2021/10/17 19:38:31;;;;;;;;;;;7.10;99.90;;;;;;8445556;28;19907;-66
2021/10/17 19:42:32;;;;;;;;;;;7.10;99.90;;;;;;8433104;28;19908;-66
2021/10/17 19:46:32;;;;;;;;;;;7.00;99.90;;;;;;8419340;28;20417;-66
2021/10/17 19:50:33;;;;;;;;;;;7.00;99.90;;;;;;8447188;28;19918;-66
2021/10/17 19:54:33;;;;;;;;;;;6.80;99.90;;;;;;8437380;28;19925;-66
2021/10/17 19:58:34;;;;;;;;;;;6.80;99.90;;;;;;8437364;28;19911;-66
2021/10/17 20:02:35;;;;;;;;;;;6.70;99.90;;;;;;8444440;28;20431;-66
2021/10/17 20:06:35;;;;;;;;;;;6.70;99.90;;;;;;8439435;28;19916;-66
2021/10/17 20:10:36;;;;;;;;;;;6.60;99.90;;;;;;8430575;28;19972;-66
2021/10/17 20:14:36;;;;;;;;;;;6.40;99.90;;;;;;8437450;28;19950;-66
2021/10/17 20:18:37;;;;;;;;;;;6.40;99.90;;;;;;8437884;28;19916;-66
2021/10/17 20:22:37;;;;;;;;;;;6.40;99.90;;;;;;8427150;28;19908;-66
2021/10/17 20:26:39;;;;;;;;;;;6.50;99.90;;;;;;8428937;28;19917;-66
2021/10/17 20:30:39;;;;;;;;;;;6.50;99.90;;;;;;8424934;28;20282;-66
2021/10/17 20:34:44;;;;;;;;;;;6.60;99.90;;;;;;8422127;28;19911;-66
2021/10/17 20:43:08;;;;;;;;;;;6.80;99.90;;;;;;8425428;28;19915;-66
2021/10/17 20:47:09;;;;;;;;;;;6.70;99.90;;;;;;8441687;28;20423;-66
2021/10/17 20:51:09;;;;;;;;;;;6.60;99.90;;;;;;8436653;28;20378;-66
2021/10/17 20:55:10;;;;;;;;;;;6.40;99.90;;;;;;8458023;28;19912;-65
2021/10/17 20:59:10;;;;;;;;;;;6.30;99.90;;;;;;8457292;28;19903;-65
2021/10/17 21:03:12;;;;;;;;;;;6.20;99.90;;;;;;8456504;28;20381;-65
2021/10/17 21:07:12;;;;;;;;;;;6.20;99.90;;;;;;8438770;28;19961;-65
2021/10/17 21:11:13;;;;;;;;;;;6.00;99.90;;;;;;8438410;28;20014;-65
2021/10/17 21:15:13;;;;;;;;;;;5.80;99.90;;;;;;8458172;28;19995;-65
2021/10/17 21:19:14;;;;;;;;;;;5.80;99.90;;;;;;8458555;28;19911;-65
2021/10/17 21:23:14;;;;;;;;;;;5.90;99.90;;;;;;8457558;28;19994;-65
2021/10/17 21:27:15;;;;;;;;;;;6.00;99.90;;;;;;8456058;28;20365;-65
2021/10/17 21:31:15;;;;;;;;;;;5.90;99.90;;;;;;8457304;28;19911;-65
2021/10/17 21:35:16;;;;;;;;;;;5.60;99.90;;;;;;8440829;28;19904;-65
2021/10/17 21:39:16;;;;;;;;;;;5.40;99.90;;;;;;8437934;28;19903;-65
2021/10/17 21:43:17;;;;;;;;;;;5.30;99.90;;;;;;8457852;28;19904;-65
2021/10/17 21:47:17;;;;;;;;;;;5.30;99.90;;;;;;8458057;28;20309;-65
2021/10/17 21:51:18;;;;;;;;;;;5.30;99.90;;;;;;8462035;28;20287;-65
2021/10/17 21:55:18;;;;;;;;;;;5.30;99.90;;;;;;8463911;28;19916;-65
2021/10/17 21:59:19;;;;;;;;;;;5.00;99.90;;;;;;8462699;28;19907;-65
2021/10/17 22:03:19;;;;;;;;;;;5.00;99.90;;;;;;8461505;28;19910;-65
2021/10/17 22:07:19;;;;;;;;;;;5.00;99.90;;;;;;8463449;28;20290;-65
2021/10/17 22:11:21;;;;;;;;;;;4.90;99.90;;;;;;8461521;28;19910;-65
2021/10/17 22:15:22;;;;;;;;;;;4.90;99.90;;;;;;8460970;28;19910;-66
2021/10/17 22:19:22;;;;;;;;;;;4.70;99.90;;;;;;8460788;28;20354;-65
2021/10/17 22:23:23;;;;;;;;;;;4.60;99.90;;;;;;8460829;28;19918;-65
2021/10/17 22:27:23;;;;;;;;;;;4.60;99.90;;;;;;8460838;28;19912;-65
2021/10/17 22:31:24;;;;;;;;;;;4.60;99.90;;;;;;8442619;28;19918;-65
2021/10/17 22:35:24;;;;;;;;;;;4.50;99.90;;;;;;8443214;28;20329;-65
2021/10/17 22:39:25;;;;;;;;;;;4.40;99.90;;;;;;8442250;28;19915;-65
2021/10/17 22:43:25;;;;;;;;;;;4.40;99.90;;;;;;8460992;28;19907;-65
2021/10/17 22:47:25;;;;;;;;;;;4.30;99.90;;;;;;8461581;28;20198;-65
2021/10/17 22:51:26;;;;;;;;;;;4.30;99.90;;;;;;8460175;28;20397;-65
2021/10/17 22:55:26;;;;;;;;;;;4.50;99.90;;;;;;8460428;28;19934;-66
2021/10/17 22:59:27;;;;;;;;;;;4.80;99.90;;;;;;8459249;28;20042;-65
2021/10/17 23:03:27;;;;;;;;;;;4.90;99.90;;;;;;8460126;28;19911;-66
2021/10/17 23:07:28;;;;;;;;;;;4.90;99.90;;;;;;8459589;28;19961;-65